createdAt,value
2018-10-11T00:00:22.028Z,45.10
2018-10-11T00:02:50.422Z,45.20
2018-10-11T00:05:18.763Z,45.30
2018-10-11T00:07:47.114Z,45.30
2018-10-11T00:10:15.528Z,45.40
2018-10-11T00:12:43.908Z,45.50
2018-10-11T00:15:12.356Z,45.60
2018-10-11T00:17:40.798Z,45.50
2018-10-11T00:20:09.346Z,45.60
2018-10-11T00:22:38.281Z,45.70
2018-10-11T00:25:06.792Z,45.80
2018-10-11T00:27:35.145Z,45.80
2018-10-11T00:30:03.598Z,45.80
2018-10-11T00:32:31.987Z,45.70
2018-10-11T00:35:00.562Z,45.70
2018-10-11T00:37:28.903Z,45.70
2018-10-11T00:39:57.224Z,46.20
2018-10-11T00:42:25.581Z,45.70
2018-10-11T00:44:53.983Z,45.60
2018-10-11T00:47:22.417Z,45.80
2018-10-11T00:49:50.843Z,45.60
2018-10-11T00:52:19.252Z,45.60
2018-10-11T00:54:47.807Z,45.60
2018-10-11T00:57:16.365Z,45.60
2018-10-11T00:59:45.063Z,45.50
2018-10-11T01:02:13.434Z,45.50
2018-10-11T01:04:41.773Z,45.50
2018-10-11T01:07:10.256Z,45.40
2018-10-11T01:09:38.608Z,45.40
2018-10-11T01:12:07.566Z,45.40
2018-10-11T01:14:35.956Z,45.40
2018-10-11T01:17:04.320Z,45.30
2018-10-11T01:19:32.677Z,45.40
2018-10-11T01:22:01.092Z,45.30
2018-10-11T01:24:29.412Z,45.30
2018-10-11T01:26:57.811Z,45.40
2018-10-11T01:29:26.243Z,45.40
2018-10-11T01:31:54.594Z,45.40
2018-10-11T01:34:23.012Z,45.40
2018-10-11T01:36:51.347Z,45.40
2018-10-11T01:39:19.679Z,45.40
2018-10-11T01:41:48.158Z,45.50
2018-10-11T01:44:16.629Z,45.40
2018-10-11T01:46:45.169Z,45.40
2018-10-11T01:49:13.590Z,45.50
2018-10-11T01:51:41.941Z,45.50
2018-10-11T01:54:10.271Z,45.50
2018-10-11T01:56:38.634Z,45.50
2018-10-11T01:59:07.045Z,45.50
2018-10-11T02:01:35.364Z,45.50
2018-10-11T02:04:03.702Z,45.40
2018-10-11T02:06:32.040Z,45.80
2018-10-11T02:09:00.495Z,45.50
2018-10-11T02:11:28.886Z,45.50
2018-10-11T02:13:57.256Z,45.60
2018-10-11T02:16:25.625Z,45.50
2018-10-11T02:18:53.960Z,45.50
2018-10-11T02:21:22.353Z,45.70
2018-10-11T02:23:50.768Z,45.50
2018-10-11T02:26:20.064Z,45.60
2018-10-11T02:28:48.480Z,45.80
2018-10-11T02:31:16.803Z,45.80
2018-10-11T02:33:45.129Z,45.80
2018-10-11T02:36:13.460Z,45.90
2018-10-11T02:38:48.709Z,45.90
2018-10-11T02:41:17.076Z,45.80
2018-10-11T02:43:45.462Z,45.80
2018-10-11T02:46:13.950Z,45.90
2018-10-11T02:48:42.367Z,45.80
2018-10-11T02:51:10.820Z,45.80
2018-10-11T02:53:39.125Z,45.90
2018-10-11T02:56:07.492Z,45.80
2018-10-11T02:58:47.090Z,45.90
2018-10-11T03:01:16.467Z,46.00
2018-10-11T03:03:44.844Z,45.90
2018-10-11T03:06:13.172Z,45.90
2018-10-11T03:08:41.612Z,46.00
2018-10-11T03:11:09.964Z,46.00
2018-10-11T03:13:38.311Z,46.10
2018-10-11T03:16:06.871Z,46.20
2018-10-11T03:18:35.259Z,46.20
2018-10-11T03:21:03.539Z,46.10
2018-10-11T03:23:31.878Z,46.20
2018-10-11T03:26:00.172Z,46.20
2018-10-11T03:28:28.527Z,46.20
2018-10-11T03:30:56.829Z,46.40
2018-10-11T03:33:25.216Z,46.40
2018-10-11T03:35:53.544Z,46.50
2018-10-11T03:38:21.889Z,46.60
2018-10-11T03:40:50.218Z,46.50
2018-10-11T03:43:18.658Z,46.50
2018-10-11T03:45:47.088Z,46.60
2018-10-11T03:48:15.381Z,46.60
2018-10-11T03:50:43.728Z,46.70
2018-10-11T03:53:12.015Z,46.70
2018-10-11T03:55:40.420Z,46.80
2018-10-11T03:58:08.804Z,46.80
2018-10-11T04:00:37.155Z,46.90
2018-10-11T04:03:05.543Z,47.00
2018-10-11T04:05:33.869Z,47.00
2018-10-11T04:08:02.228Z,47.00
2018-10-11T04:10:30.524Z,47.10
2018-10-11T04:12:58.922Z,47.00
2018-10-11T04:15:27.350Z,47.50
2018-10-11T04:17:55.722Z,47.20
2018-10-11T04:20:24.188Z,47.30
2018-10-11T04:22:52.748Z,47.10
2018-10-11T04:25:21.137Z,47.10
2018-10-11T04:27:49.406Z,47.10
2018-10-11T04:30:17.840Z,47.20
2018-10-11T04:32:46.332Z,47.20
2018-10-11T04:35:15.596Z,47.30
2018-10-11T04:37:44.012Z,47.40
2018-10-11T04:40:12.484Z,47.50
2018-10-11T04:42:40.917Z,47.80
2018-10-11T04:45:09.316Z,47.90
2018-10-11T04:47:37.751Z,47.80
2018-10-11T04:50:06.040Z,47.90
2018-10-11T04:52:34.392Z,47.90
2018-10-11T04:55:02.940Z,48.00
2018-10-11T04:57:31.267Z,48.00
2018-10-11T04:59:59.654Z,48.50
2018-10-11T05:02:28.044Z,48.00
2018-10-11T05:04:56.390Z,48.10
2018-10-11T05:07:24.974Z,48.10
2018-10-11T05:09:53.316Z,48.10
2018-10-11T05:12:21.692Z,48.20
2018-10-11T05:14:50.025Z,48.30
2018-10-11T05:17:18.460Z,48.20
2018-10-11T05:19:46.779Z,48.20
2018-10-11T05:22:15.095Z,47.90
2018-10-11T05:24:43.412Z,47.90
2018-10-11T05:27:11.745Z,47.90
2018-10-11T05:29:40.048Z,48.00
2018-10-11T05:32:08.484Z,48.20
2018-10-11T05:34:37.001Z,48.10
2018-10-11T05:37:05.340Z,48.20
2018-10-11T05:39:33.636Z,48.20
2018-10-11T05:42:01.984Z,48.20
2018-10-11T05:44:30.491Z,48.30
2018-10-11T05:46:58.968Z,48.50
2018-10-11T05:49:27.301Z,48.70
2018-10-11T05:51:55.762Z,50.10
2018-10-11T05:54:24.083Z,49.30
2018-10-11T05:56:52.550Z,49.30
2018-10-11T05:59:21.001Z,49.10
2018-10-11T06:01:49.384Z,49.20
2018-10-11T06:04:17.775Z,49.50
2018-10-11T06:06:47.136Z,49.80
2018-10-11T06:09:15.546Z,49.70
2018-10-11T06:11:44.524Z,49.50
2018-10-11T06:14:13.544Z,49.40
2018-10-11T06:16:41.970Z,49.40
2018-10-11T06:19:11.536Z,49.40
2018-10-11T06:21:39.908Z,49.40
2018-10-11T06:24:08.293Z,49.40
2018-10-11T06:26:36.670Z,49.30
2018-10-11T06:29:05.168Z,49.10
2018-10-11T06:31:33.580Z,49.00
2018-10-11T06:34:01.977Z,49.00
2018-10-11T06:36:30.590Z,49.00
2018-10-11T06:38:59.575Z,48.90
2018-10-11T06:41:28.273Z,48.90
2018-10-11T06:43:56.818Z,48.90
2018-10-11T06:46:25.167Z,48.70
2018-10-11T06:48:53.529Z,48.20
2018-10-11T06:51:21.919Z,48.10
2018-10-11T06:53:50.747Z,47.70
2018-10-11T06:56:19.049Z,47.60
2018-10-11T06:58:47.500Z,47.20
2018-10-11T07:01:18.264Z,47.20
2018-10-11T07:03:46.612Z,46.70
2018-10-11T07:06:14.896Z,46.40
2018-10-11T07:08:43.274Z,45.40
2018-10-11T07:11:11.674Z,45.90
2018-10-11T07:13:40.001Z,45.20
2018-10-11T07:16:08.301Z,45.30
2018-10-11T07:18:36.700Z,45.30
2018-10-11T07:21:05.050Z,44.90
2018-10-11T07:23:33.392Z,45.00
2018-10-11T07:26:01.741Z,45.10
2018-10-11T07:28:30.189Z,45.10
2018-10-11T07:30:58.535Z,44.70
2018-10-11T07:33:26.905Z,44.50
2018-10-11T07:35:55.196Z,44.20
2018-10-11T07:38:23.516Z,44.10
2018-10-11T07:40:51.857Z,43.80
2018-10-11T07:43:20.180Z,43.30
2018-10-11T07:45:48.712Z,43.10
2018-10-11T07:48:17.099Z,42.90
2018-10-11T07:50:45.428Z,42.40
2018-10-11T07:53:13.796Z,42.20
2018-10-11T07:55:42.145Z,41.80
2018-10-11T07:58:10.453Z,41.10
2018-10-11T08:00:38.816Z,40.90
2018-10-11T08:03:07.164Z,40.20
2018-10-11T08:05:35.687Z,39.30
2018-10-11T08:08:04.018Z,38.40
2018-10-11T08:10:32.376Z,37.60
2018-10-11T08:13:00.929Z,37.00
2018-10-11T08:15:29.300Z,36.90
2018-10-11T08:17:58.011Z,36.30
2018-10-11T08:20:26.183Z,36.30
2018-10-11T08:22:54.596Z,36.20
2018-10-11T08:25:23.130Z,35.60
2018-10-11T08:27:51.252Z,35.30
2018-10-11T08:30:19.592Z,34.50
2018-10-11T08:32:48.036Z,34.10
2018-10-11T08:35:16.421Z,33.80
2018-10-11T08:37:44.820Z,34.10
2018-10-11T08:40:13.155Z,32.90
2018-10-11T08:42:41.431Z,32.80
2018-10-11T08:45:09.810Z,32.50
2018-10-11T08:47:38.106Z,32.10
2018-10-11T08:50:06.671Z,31.90
2018-10-11T08:52:34.901Z,31.60
2018-10-11T08:55:03.237Z,32.00
2018-10-11T08:57:31.634Z,31.80
2018-10-11T08:59:59.967Z,31.40
2018-10-11T09:02:28.279Z,31.30
2018-10-11T09:04:56.621Z,31.00
2018-10-11T09:07:24.905Z,31.00
2018-10-11T09:09:53.759Z,30.90
2018-10-11T09:12:21.844Z,31.10
2018-10-11T09:14:50.126Z,31.50
2018-10-11T09:17:18.559Z,31.50
2018-10-11T09:19:46.909Z,31.50
2018-10-11T09:22:15.296Z,31.50
2018-10-11T09:24:43.631Z,31.30
2018-10-11T09:27:11.972Z,31.40
2018-10-11T09:29:40.287Z,31.30
2018-10-11T09:32:08.715Z,31.30
2018-10-11T09:34:37.051Z,31.30
2018-10-11T09:37:05.451Z,31.20
2018-10-11T09:39:33.762Z,31.20
2018-10-11T09:42:02.154Z,31.60
2018-10-11T09:44:30.505Z,31.00
2018-10-11T09:46:58.857Z,30.80
2018-10-11T09:49:27.514Z,30.80
2018-10-11T09:51:55.889Z,30.80
2018-10-11T09:54:24.257Z,30.70
2018-10-11T09:57:28.452Z,30.60
2018-10-11T09:59:57.296Z,30.20
2018-10-11T10:02:26.298Z,30.50
2018-10-11T10:04:56.868Z,30.10
2018-10-11T10:07:25.316Z,30.10
2018-10-11T10:09:53.674Z,30.20
2018-10-11T10:12:22.464Z,29.80
2018-10-11T10:14:51.101Z,29.90
2018-10-11T10:17:19.742Z,29.50
2018-10-11T10:19:48.193Z,29.60
2018-10-11T10:22:16.502Z,29.50
2018-10-11T10:24:44.894Z,29.10
2018-10-11T10:27:13.437Z,28.70
2018-10-11T10:29:41.652Z,28.50
2018-10-11T10:32:10.026Z,28.20
2018-10-11T10:34:38.292Z,27.80
2018-10-11T10:37:06.680Z,27.30
2018-10-11T10:39:34.990Z,27.00
2018-10-11T10:42:03.368Z,26.40
2018-10-11T10:44:31.652Z,26.10
2018-10-11T10:47:00.018Z,25.50
2018-10-11T10:49:28.634Z,25.30
2018-10-11T10:51:57.009Z,24.80
2018-10-11T10:54:28.410Z,24.30
2018-10-11T10:56:57.355Z,23.90
2018-10-11T10:59:25.665Z,23.60
2018-10-11T11:01:54.423Z,23.20
2018-10-11T11:04:22.772Z,22.70
2018-10-11T11:06:51.086Z,22.40
2018-10-11T11:09:19.465Z,22.10
2018-10-11T11:11:47.767Z,21.50
2018-10-11T11:14:16.817Z,21.50
2018-10-11T11:16:45.527Z,21.30
2018-10-11T11:19:14.465Z,21.10
2018-10-11T11:21:42.804Z,20.60
2018-10-11T11:24:11.190Z,20.40
2018-10-11T11:26:39.605Z,20.00
2018-10-11T11:29:07.980Z,19.80
2018-10-11T11:31:36.298Z,19.50
2018-10-11T11:34:04.664Z,19.20
2018-10-11T11:36:33.593Z,19.00
2018-10-11T11:39:01.891Z,19.00
2018-10-11T11:41:30.407Z,18.80
2018-10-11T11:43:58.744Z,18.60
2018-10-11T11:46:27.213Z,18.40
2018-10-11T11:48:55.914Z,18.40
2018-10-11T11:51:24.309Z,17.90
2018-10-11T11:53:52.616Z,18.10
2018-10-11T11:56:20.934Z,17.60
2018-10-11T11:58:49.323Z,17.40
2018-10-11T12:01:17.648Z,17.30
2018-10-11T12:03:45.966Z,17.20
2018-10-11T12:06:14.269Z,17.10
2018-10-11T12:08:42.824Z,17.10
2018-10-11T12:11:11.270Z,16.80
2018-10-11T12:13:39.678Z,16.70
2018-10-11T12:16:08.009Z,16.60
2018-10-11T12:18:36.360Z,16.50
2018-10-11T12:21:04.715Z,16.40
2018-10-11T12:23:33.125Z,16.40
2018-10-11T12:26:01.491Z,16.40
2018-10-11T12:28:29.852Z,16.30
2018-10-11T12:30:58.325Z,16.30
2018-10-11T12:33:26.661Z,16.30
2018-10-11T12:35:55.045Z,16.60
2018-10-11T12:38:23.482Z,16.80
2018-10-11T12:40:51.787Z,17.20
2018-10-11T12:43:20.340Z,17.70
2018-10-11T12:45:48.958Z,18.30
2018-10-11T12:48:17.836Z,18.70
2018-10-11T12:50:47.176Z,19.20
2018-10-11T12:53:15.845Z,19.60
2018-10-11T12:55:45.205Z,20.00
2018-10-11T12:58:13.575Z,20.30
2018-10-11T13:00:41.987Z,21.10
2018-10-11T13:03:10.409Z,21.60
2018-10-11T13:05:38.759Z,21.60
2018-10-11T13:08:07.159Z,21.40
2018-10-11T13:10:36.088Z,21.20
2018-10-11T13:13:06.825Z,21.00
2018-10-11T13:15:32.754Z,21.10
2018-10-11T13:18:01.039Z,21.10
2018-10-11T13:20:29.801Z,21.30
2018-10-11T13:22:58.446Z,21.40
2018-10-11T13:25:26.724Z,21.50
2018-10-11T13:27:55.167Z,21.50
2018-10-11T13:30:23.833Z,21.60
2018-10-11T13:32:52.389Z,21.80
2018-10-11T13:35:20.907Z,22.20
2018-10-11T13:37:49.621Z,22.60
2018-10-11T13:40:18.167Z,23.00
2018-10-11T13:42:46.566Z,23.30
2018-10-11T13:45:14.909Z,23.70
2018-10-11T13:47:45.293Z,23.90
2018-10-11T13:50:11.639Z,24.40
2018-10-11T13:52:39.976Z,24.80
2018-10-11T13:55:12.153Z,25.30
2018-10-11T13:57:36.825Z,25.50
2018-10-11T14:00:05.532Z,25.80
2018-10-11T14:02:33.915Z,26.20
2018-10-11T14:05:02.274Z,26.50
2018-10-11T14:07:30.569Z,26.80
2018-10-11T14:10:05.717Z,27.10
2018-10-11T14:12:34.000Z,27.20
2018-10-11T14:15:02.305Z,27.40
2018-10-11T14:17:30.679Z,27.60
2018-10-11T14:19:59.106Z,27.80
2018-10-11T14:22:28.780Z,27.90
2018-10-11T14:24:57.124Z,27.90
2018-10-11T14:27:25.432Z,27.90
2018-10-11T14:29:53.856Z,28.00
2018-10-11T14:32:25.304Z,27.70
2018-10-11T14:34:53.705Z,28.00
2018-10-11T14:37:22.510Z,28.20
2018-10-11T14:39:50.824Z,28.20
2018-10-11T14:42:19.183Z,28.60
2018-10-11T14:44:47.589Z,28.80
2018-10-11T14:47:15.939Z,29.00
2018-10-11T14:49:44.256Z,29.00
2018-10-11T14:52:12.657Z,29.30
2018-10-11T14:54:40.980Z,29.40
2018-10-11T14:57:09.393Z,29.40
2018-10-11T14:59:37.800Z,29.70
2018-10-11T15:02:06.285Z,29.90
2018-10-11T15:04:34.864Z,29.90
2018-10-11T15:07:03.251Z,30.00
2018-10-11T15:09:31.561Z,30.20
2018-10-11T15:11:59.932Z,30.40
2018-10-11T15:14:28.612Z,30.50
2018-10-11T15:16:57.372Z,30.80
2018-10-11T15:19:25.684Z,31.00
2018-10-11T15:21:54.125Z,31.20
2018-10-11T15:24:22.465Z,31.50
2018-10-11T15:26:50.828Z,31.60
2018-10-11T15:29:19.190Z,31.70
2018-10-11T15:31:47.493Z,31.90
2018-10-11T15:34:15.852Z,32.10
2018-10-11T15:36:44.280Z,32.40
2018-10-11T15:39:13.574Z,32.60
2018-10-11T15:41:41.910Z,32.80
2018-10-11T15:44:11.139Z,33.20
2018-10-11T15:46:39.736Z,33.70
2018-10-11T15:49:08.691Z,34.10
2018-10-11T15:51:37.304Z,34.10
2018-10-11T15:54:05.724Z,34.40
2018-10-11T15:56:34.055Z,34.60
2018-10-11T15:59:02.542Z,34.90
2018-10-11T16:01:31.032Z,35.10
2018-10-11T16:03:59.673Z,35.40
2018-10-11T16:06:28.224Z,35.70
2018-10-11T16:08:56.937Z,35.90
2018-10-11T16:11:25.307Z,36.20
2018-10-11T16:13:53.847Z,36.30
2018-10-11T16:16:22.144Z,36.50
2018-10-11T16:18:50.586Z,36.70
2018-10-11T16:21:19.083Z,37.00
2018-10-11T16:23:47.544Z,37.10
2018-10-11T16:26:15.928Z,37.20
2018-10-11T16:28:44.255Z,37.20
2018-10-11T16:31:12.612Z,37.30
2018-10-11T16:33:40.953Z,37.20
2018-10-11T16:36:09.328Z,37.30
2018-10-11T16:38:37.656Z,37.20
2018-10-11T16:41:05.972Z,37.30
2018-10-11T16:43:34.348Z,37.30
2018-10-11T16:46:02.656Z,37.40
2018-10-11T16:48:31.131Z,37.60
2018-10-11T16:50:59.512Z,37.80
2018-10-11T16:53:27.873Z,38.10
2018-10-11T16:55:56.248Z,38.20
2018-10-11T16:58:24.594Z,38.40
2018-10-11T17:00:53.084Z,38.50
2018-10-11T17:03:21.948Z,38.60
2018-10-11T17:05:50.280Z,38.90
2018-10-11T17:08:18.894Z,39.20
2018-10-11T17:10:47.352Z,39.40
2018-10-11T17:13:15.676Z,39.10
2018-10-11T17:15:44.140Z,39.50
2018-10-11T17:18:12.493Z,39.50
2018-10-11T17:20:40.825Z,39.50
2018-10-11T17:23:09.129Z,39.80
2018-10-11T17:25:37.607Z,39.80
2018-10-11T17:28:06.061Z,39.80
2018-10-11T17:30:34.399Z,40.00
2018-10-11T17:33:02.750Z,39.90
2018-10-11T17:35:31.165Z,40.20
2018-10-11T17:37:59.462Z,40.40
2018-10-11T17:40:29.043Z,40.20
2018-10-11T17:42:57.676Z,40.90
2018-10-11T17:45:26.076Z,40.70
2018-10-11T17:47:54.412Z,40.50
2018-10-11T17:50:22.911Z,40.80
2018-10-11T17:52:51.259Z,40.80
2018-10-11T17:55:19.610Z,41.10
2018-10-11T17:57:47.933Z,41.10
2018-10-11T18:00:16.340Z,41.50
2018-10-11T18:02:44.757Z,41.90
2018-10-11T18:05:13.154Z,42.20
2018-10-11T18:07:41.486Z,42.20
2018-10-11T18:10:09.949Z,41.80
2018-10-11T18:12:38.261Z,42.40
2018-10-11T18:15:07.101Z,42.20
2018-10-11T18:17:35.683Z,42.40
2018-10-11T18:20:04.541Z,42.90
2018-10-11T18:22:32.833Z,43.60
2018-10-11T18:25:01.299Z,43.30
2018-10-11T18:27:30.153Z,43.20
2018-10-11T18:29:59.254Z,42.70
2018-10-11T18:32:27.909Z,43.00
2018-10-11T18:34:56.282Z,43.10
2018-10-11T18:37:25.101Z,43.50
2018-10-11T18:39:53.554Z,44.00
2018-10-11T18:42:22.302Z,43.70
2018-10-11T18:44:50.789Z,44.20
2018-10-11T18:47:19.168Z,44.70
2018-10-11T18:49:47.525Z,44.70
2018-10-11T18:52:16.078Z,45.00
2018-10-11T18:54:44.513Z,45.30
2018-10-11T18:57:13.862Z,45.40
2018-10-11T18:59:43.637Z,45.20
2018-10-11T19:02:15.144Z,45.40
2018-10-11T19:04:43.586Z,45.10
2018-10-11T19:07:12.166Z,45.30
2018-10-11T19:09:40.602Z,45.40
2018-10-11T19:12:09.164Z,45.60
2018-10-11T19:14:37.480Z,46.20
2018-10-11T19:17:05.873Z,46.20
2018-10-11T19:19:34.277Z,46.40
2018-10-11T19:22:02.744Z,46.40
2018-10-11T19:24:31.296Z,46.40
2018-10-11T19:26:59.660Z,46.60
2018-10-11T19:29:28.093Z,47.00
2018-10-11T19:31:56.498Z,46.80
2018-10-11T19:34:24.901Z,47.40
2018-10-11T19:36:53.269Z,47.50
2018-10-11T19:39:21.891Z,47.50
2018-10-11T19:41:50.412Z,47.60
2018-10-11T19:44:18.813Z,47.60
2018-10-11T19:46:47.190Z,47.50
2018-10-11T19:49:15.505Z,47.70
2018-10-11T19:51:43.826Z,47.60
2018-10-11T19:54:12.168Z,48.10
2018-10-11T19:56:40.542Z,47.60
2018-10-11T19:59:08.946Z,47.70
2018-10-11T20:01:37.486Z,47.90
2018-10-11T20:04:05.836Z,48.00
2018-10-11T20:06:34.145Z,47.60
2018-10-11T20:09:02.492Z,47.60
2018-10-11T20:11:30.813Z,47.70
2018-10-11T20:13:59.091Z,48.10
2018-10-11T20:16:27.509Z,48.30
2018-10-11T20:18:55.840Z,48.30
2018-10-11T20:21:24.232Z,48.90
2018-10-11T20:23:52.576Z,48.10
2018-10-11T20:26:20.905Z,48.00
2018-10-11T20:28:49.189Z,48.10
2018-10-11T20:31:17.690Z,48.30
2018-10-11T20:33:46.093Z,48.50
2018-10-11T20:36:14.435Z,48.70
2018-10-11T20:38:42.741Z,48.80
2018-10-11T20:41:11.025Z,48.70
2018-10-11T20:43:39.397Z,48.80
2018-10-11T20:46:08.040Z,48.80
2018-10-11T20:48:36.524Z,49.00
2018-10-11T20:51:04.860Z,49.10
2018-10-11T20:53:33.179Z,49.10
2018-10-11T20:56:01.747Z,49.00
2018-10-11T20:58:30.085Z,49.00
2018-10-11T21:00:58.418Z,48.90
2018-10-11T21:03:26.710Z,48.90
2018-10-11T21:05:55.144Z,49.00
2018-10-11T21:08:23.550Z,49.00
2018-10-11T21:10:51.909Z,48.60
2018-10-11T21:13:20.334Z,48.50
2018-10-11T21:15:48.665Z,48.60
2018-10-11T21:18:17.112Z,48.80
2018-10-11T21:20:45.450Z,48.80
2018-10-11T21:23:14.111Z,48.70
2018-10-11T21:25:42.404Z,48.80
2018-10-11T21:28:10.786Z,48.90
2018-10-11T21:30:39.198Z,49.00
2018-10-11T21:33:08.602Z,49.10
2018-10-11T21:35:37.753Z,49.90
2018-10-11T21:38:06.842Z,49.50
2018-10-11T21:40:35.471Z,49.80
2018-10-11T21:43:03.895Z,49.90
2018-10-11T21:45:32.468Z,50.10
2018-10-11T21:48:00.810Z,50.10
2018-10-11T21:50:29.181Z,50.10
2018-10-11T21:52:57.651Z,50.40
2018-10-11T21:55:26.512Z,50.00
2018-10-11T21:57:54.980Z,49.60
2018-10-11T22:00:28.672Z,49.30
2018-10-11T22:02:57.072Z,49.30
2018-10-11T22:05:25.423Z,49.40
2018-10-11T22:07:53.803Z,49.50
2018-10-11T22:10:22.429Z,49.60
2018-10-11T22:12:50.817Z,50.00
2018-10-11T22:15:19.489Z,50.30
2018-10-11T22:17:47.805Z,50.10
2018-10-11T22:20:16.294Z,49.90
2018-10-11T22:22:44.821Z,49.70
2018-10-11T22:25:13.284Z,49.50
2018-10-11T22:27:42.057Z,49.40
2018-10-11T22:30:10.766Z,49.30
2018-10-11T22:32:39.350Z,49.50
2018-10-11T22:35:07.769Z,49.40
2018-10-11T22:37:36.315Z,49.60
2018-10-11T22:40:04.874Z,49.60
2018-10-11T22:42:33.375Z,49.50
2018-10-11T22:45:01.805Z,49.40
2018-10-11T22:47:30.295Z,49.60
2018-10-11T22:49:58.652Z,49.50
2018-10-11T22:52:27.217Z,49.50
2018-10-11T22:54:55.843Z,49.50
2018-10-11T22:57:24.312Z,49.50
2018-10-11T22:59:52.712Z,49.70
2018-10-11T23:02:21.194Z,49.80
2018-10-11T23:04:49.572Z,49.80
2018-10-11T23:07:18.133Z,50.00
2018-10-11T23:09:46.573Z,50.00
2018-10-11T23:12:15.223Z,50.00
2018-10-11T23:14:44.060Z,49.90
2018-10-11T23:17:12.415Z,49.90
2018-10-11T23:19:40.938Z,49.90
2018-10-11T23:22:09.451Z,50.00
2018-10-11T23:24:37.771Z,49.90
2018-10-11T23:27:06.473Z,50.20
2018-10-11T23:29:35.097Z,50.10
2018-10-11T23:32:03.759Z,50.10
2018-10-11T23:34:32.203Z,50.40
2018-10-11T23:37:00.706Z,50.40
2018-10-11T23:39:29.052Z,50.40
2018-10-11T23:41:57.575Z,50.50
2018-10-11T23:44:25.968Z,50.30
2018-10-11T23:46:54.296Z,50.60
2018-10-11T23:49:22.668Z,50.80
2018-10-11T23:51:51.032Z,51.50
2018-10-11T23:54:19.439Z,51.30
2018-10-11T23:56:47.834Z,51.50
2018-10-11T23:59:16.179Z,51.60
